sensor_id;sensor_type;location;lat;lon;timestamp;P1;durP1;ratioP1;P2;durP2;ratioP2
18983;SDS011;9626;52.552;13.436;2023-06-14T00:02:09;7.17;;;2.80;;
18983;SDS011;9626;52.552;13.436;2023-06-14T00:04:35;5.57;;;2.70;;
18983;SDS011;9626;52.552;13.436;2023-06-14T00:07:02;3.53;;;2.40;;
18983;SDS011;9626;52.552;13.436;2023-06-14T00:09:28;2.83;;;2.00;;
18983;SDS011;9626;52.552;13.436;2023-06-14T00:11:54;2.33;;;2.13;;
18983;SDS011;9626;52.552;13.436;2023-06-14T00:14:20;5.13;;;2.20;;
18983;SDS011;9626;52.552;13.436;2023-06-14T00:16:46;4.90;;;2.90;;
18983;SDS011;9626;52.552;13.436;2023-06-14T00:19:13;5.07;;;2.67;;
18983;SDS011;9626;52.552;13.436;2023-06-14T00:21:39;5.47;;;2.87;;
18983;SDS011;9626;52.552;13.436;2023-06-14T00:24:07;4.37;;;2.73;;
18983;SDS011;9626;52.552;13.436;2023-06-14T00:26:33;4.17;;;2.63;;
18983;SDS011;9626;52.552;13.436;2023-06-14T00:28:59;6.77;;;3.20;;
18983;SDS011;9626;52.552;13.436;2023-06-14T00:31:25;4.33;;;3.30;;
18983;SDS011;9626;52.552;13.436;2023-06-14T00:33:51;5.73;;;2.80;;
18983;SDS011;9626;52.552;13.436;2023-06-14T00:36:17;5.20;;;3.03;;
18983;SDS011;9626;52.552;13.436;2023-06-14T00:38:43;5.10;;;3.10;;
18983;SDS011;9626;52.552;13.436;2023-06-14T00:41:09;3.73;;;2.70;;
18983;SDS011;9626;52.552;13.436;2023-06-14T00:43:35;4.10;;;2.70;;
18983;SDS011;9626;52.552;13.436;2023-06-14T00:46:01;3.80;;;2.30;;
18983;SDS011;9626;52.552;13.436;2023-06-14T00:48:27;3.00;;;2.50;;
18983;SDS011;9626;52.552;13.436;2023-06-14T00:50:54;4.27;;;2.77;;
18983;SDS011;9626;52.552;13.436;2023-06-14T00:53:21;5.90;;;2.47;;
18983;SDS011;9626;52.552;13.436;2023-06-14T00:55:48;3.40;;;2.33;;
18983;SDS011;9626;52.552;13.436;2023-06-14T00:58:14;5.07;;;2.63;;
18983;SDS011;9626;52.552;13.436;2023-06-14T01:00:41;4.47;;;2.70;;
18983;SDS011;9626;52.552;13.436;2023-06-14T01:03:07;4.53;;;3.53;;
18983;SDS011;9626;52.552;13.436;2023-06-14T01:05:38;6.73;;;3.30;;
18983;SDS011;9626;52.552;13.436;2023-06-14T01:11:25;3.63;;;2.70;;
18983;SDS011;9626;52.552;13.436;2023-06-14T01:13:56;3.67;;;2.70;;
18983;SDS011;9626;52.552;13.436;2023-06-14T01:16:25;4.90;;;2.90;;
18983;SDS011;9626;52.552;13.436;2023-06-14T01:18:52;5.40;;;2.67;;
18983;SDS011;9626;52.552;13.436;2023-06-14T01:21:25;4.77;;;2.47;;
18983;SDS011;9626;52.552;13.436;2023-06-14T01:23:51;2.73;;;2.53;;
18983;SDS011;9626;52.552;13.436;2023-06-14T01:26:22;3.13;;;2.43;;
18983;SDS011;9626;52.552;13.436;2023-06-14T01:28:48;3.97;;;2.90;;
18983;SDS011;9626;52.552;13.436;2023-06-14T01:31:20;3.50;;;2.77;;
18983;SDS011;9626;52.552;13.436;2023-06-14T01:33:47;4.87;;;3.10;;
18983;SDS011;9626;52.552;13.436;2023-06-14T01:36:18;4.10;;;2.80;;
18983;SDS011;9626;52.552;13.436;2023-06-14T01:38:45;5.33;;;3.13;;
18983;SDS011;9626;52.552;13.436;2023-06-14T01:41:14;6.07;;;3.30;;
18983;SDS011;9626;52.552;13.436;2023-06-14T01:43:40;5.70;;;3.20;;
18983;SDS011;9626;52.552;13.436;2023-06-14T01:46:08;4.30;;;3.13;;
18983;SDS011;9626;52.552;13.436;2023-06-14T01:48:35;5.23;;;3.47;;
18983;SDS011;9626;52.552;13.436;2023-06-14T01:51:01;5.27;;;3.90;;
18983;SDS011;9626;52.552;13.436;2023-06-14T01:53:27;8.90;;;4.33;;
18983;SDS011;9626;52.552;13.436;2023-06-14T01:55:53;7.57;;;4.20;;
18983;SDS011;9626;52.552;13.436;2023-06-14T01:58:19;7.00;;;4.27;;
18983;SDS011;9626;52.552;13.436;2023-06-14T02:00:46;7.23;;;4.10;;
18983;SDS011;9626;52.552;13.436;2023-06-14T02:03:31;7.27;;;4.37;;
18983;SDS011;9626;52.552;13.436;2023-06-14T02:06:16;5.67;;;3.73;;
18983;SDS011;9626;52.552;13.436;2023-06-14T02:09:01;4.47;;;3.90;;
18983;SDS011;9626;52.552;13.436;2023-06-14T02:11:28;5.37;;;3.57;;
18983;SDS011;9626;52.552;13.436;2023-06-14T02:13:55;5.47;;;3.23;;
18983;SDS011;9626;52.552;13.436;2023-06-14T02:16:21;7.40;;;3.30;;
18983;SDS011;9626;52.552;13.436;2023-06-14T02:18:48;5.07;;;4.27;;
18983;SDS011;9626;52.552;13.436;2023-06-14T02:21:14;5.27;;;3.93;;
18983;SDS011;9626;52.552;13.436;2023-06-14T02:23:40;7.57;;;4.57;;
18983;SDS011;9626;52.552;13.436;2023-06-14T02:26:07;10.57;;;5.30;;
18983;SDS011;9626;52.552;13.436;2023-06-14T02:28:33;10.27;;;5.20;;
18983;SDS011;9626;52.552;13.436;2023-06-14T02:30:58;7.10;;;5.20;;
18983;SDS011;9626;52.552;13.436;2023-06-14T02:33:26;7.97;;;5.60;;
18983;SDS011;9626;52.552;13.436;2023-06-14T02:35:52;8.17;;;4.90;;
18983;SDS011;9626;52.552;13.436;2023-06-14T02:38:18;6.97;;;4.97;;
18983;SDS011;9626;52.552;13.436;2023-06-14T02:40:44;6.47;;;4.10;;
18983;SDS011;9626;52.552;13.436;2023-06-14T02:43:10;8.50;;;4.70;;
18983;SDS011;9626;52.552;13.436;2023-06-14T02:45:36;6.40;;;4.30;;
18983;SDS011;9626;52.552;13.436;2023-06-14T02:48:02;8.73;;;4.33;;
18983;SDS011;9626;52.552;13.436;2023-06-14T02:50:28;7.83;;;4.60;;
18983;SDS011;9626;52.552;13.436;2023-06-14T02:52:55;11.73;;;5.20;;
18983;SDS011;9626;52.552;13.436;2023-06-14T02:55:22;8.47;;;4.27;;
18983;SDS011;9626;52.552;13.436;2023-06-14T02:57:48;6.90;;;4.40;;
18983;SDS011;9626;52.552;13.436;2023-06-14T03:00:15;4.13;;;3.47;;
18983;SDS011;9626;52.552;13.436;2023-06-14T03:02:41;7.23;;;3.20;;
18983;SDS011;9626;52.552;13.436;2023-06-14T03:05:08;4.77;;;3.40;;
18983;SDS011;9626;52.552;13.436;2023-06-14T03:07:35;5.33;;;3.90;;
18983;SDS011;9626;52.552;13.436;2023-06-14T03:10:09;6.30;;;4.03;;
18983;SDS011;9626;52.552;13.436;2023-06-14T03:12:35;6.00;;;3.83;;
18983;SDS011;9626;52.552;13.436;2023-06-14T03:15:02;5.63;;;4.40;;
18983;SDS011;9626;52.552;13.436;2023-06-14T03:17:28;6.20;;;4.80;;
18983;SDS011;9626;52.552;13.436;2023-06-14T03:19:57;7.93;;;4.83;;
18983;SDS011;9626;52.552;13.436;2023-06-14T03:22:23;8.93;;;5.20;;
18983;SDS011;9626;52.552;13.436;2023-06-14T03:24:51;9.10;;;4.90;;
18983;SDS011;9626;52.552;13.436;2023-06-14T03:27:17;6.87;;;5.23;;
18983;SDS011;9626;52.552;13.436;2023-06-14T03:29:44;7.93;;;5.47;;
18983;SDS011;9626;52.552;13.436;2023-06-14T03:32:10;7.77;;;5.83;;
18983;SDS011;9626;52.552;13.436;2023-06-14T03:34:36;10.10;;;5.97;;
18983;SDS011;9626;52.552;13.436;2023-06-14T03:37:04;10.30;;;6.23;;
18983;SDS011;9626;52.552;13.436;2023-06-14T03:39:30;11.37;;;5.67;;
18983;SDS011;9626;52.552;13.436;2023-06-14T03:41:56;12.10;;;6.57;;
18983;SDS011;9626;52.552;13.436;2023-06-14T03:44:22;11.47;;;5.87;;
18983;SDS011;9626;52.552;13.436;2023-06-14T03:46:48;9.20;;;6.57;;
18983;SDS011;9626;52.552;13.436;2023-06-14T03:49:15;9.73;;;7.30;;
18983;SDS011;9626;52.552;13.436;2023-06-14T03:51:42;14.47;;;6.63;;
18983;SDS011;9626;52.552;13.436;2023-06-14T03:54:08;8.40;;;6.47;;
18983;SDS011;9626;52.552;13.436;2023-06-14T03:56:34;9.87;;;6.17;;
18983;SDS011;9626;52.552;13.436;2023-06-14T03:59:01;10.47;;;6.30;;
18983;SDS011;9626;52.552;13.436;2023-06-14T04:01:27;10.40;;;6.23;;
18983;SDS011;9626;52.552;13.436;2023-06-14T04:03:55;9.90;;;5.70;;
18983;SDS011;9626;52.552;13.436;2023-06-14T04:06:23;10.73;;;6.50;;
18983;SDS011;9626;52.552;13.436;2023-06-14T04:08:51;11.97;;;6.00;;
18983;SDS011;9626;52.552;13.436;2023-06-14T04:11:17;9.97;;;6.07;;
18983;SDS011;9626;52.552;13.436;2023-06-14T04:13:43;8.90;;;5.97;;
18983;SDS011;9626;52.552;13.436;2023-06-14T04:16:10;10.13;;;6.83;;
18983;SDS011;9626;52.552;13.436;2023-06-14T04:18:36;8.07;;;5.80;;
18983;SDS011;9626;52.552;13.436;2023-06-14T04:21:02;5.53;;;4.60;;
18983;SDS011;9626;52.552;13.436;2023-06-14T04:23:28;6.70;;;4.43;;
18983;SDS011;9626;52.552;13.436;2023-06-14T04:25:54;8.17;;;5.07;;
18983;SDS011;9626;52.552;13.436;2023-06-14T04:28:20;8.13;;;5.17;;
18983;SDS011;9626;52.552;13.436;2023-06-14T04:30:46;10.80;;;5.10;;
18983;SDS011;9626;52.552;13.436;2023-06-14T04:33:14;10.50;;;5.60;;
18983;SDS011;9626;52.552;13.436;2023-06-14T04:35:40;10.17;;;5.77;;
18983;SDS011;9626;52.552;13.436;2023-06-14T04:38:06;11.60;;;5.40;;
18983;SDS011;9626;52.552;13.436;2023-06-14T04:40:35;7.73;;;5.53;;
18983;SDS011;9626;52.552;13.436;2023-06-14T04:43:08;9.33;;;6.37;;
18983;SDS011;9626;52.552;13.436;2023-06-14T04:45:37;13.73;;;7.37;;
18983;SDS011;9626;52.552;13.436;2023-06-14T04:48:05;7.93;;;6.27;;
18983;SDS011;9626;52.552;13.436;2023-06-14T04:50:32;6.97;;;5.57;;
18983;SDS011;9626;52.552;13.436;2023-06-14T04:52:58;10.80;;;6.33;;
18983;SDS011;9626;52.552;13.436;2023-06-14T04:55:25;13.17;;;6.00;;
18983;SDS011;9626;52.552;13.436;2023-06-14T04:57:52;10.90;;;6.07;;
18983;SDS011;9626;52.552;13.436;2023-06-14T05:00:19;10.00;;;5.73;;
18983;SDS011;9626;52.552;13.436;2023-06-14T05:02:46;6.80;;;4.93;;
18983;SDS011;9626;52.552;13.436;2023-06-14T05:05:12;9.13;;;4.80;;
18983;SDS011;9626;52.552;13.436;2023-06-14T05:07:38;5.73;;;5.13;;
18983;SDS011;9626;52.552;13.436;2023-06-14T05:10:05;11.33;;;5.37;;
18983;SDS011;9626;52.552;13.436;2023-06-14T05:12:32;8.80;;;5.47;;
18983;SDS011;9626;52.552;13.436;2023-06-14T05:15:00;9.47;;;4.47;;
18983;SDS011;9626;52.552;13.436;2023-06-14T05:17:26;7.73;;;5.13;;
18983;SDS011;9626;52.552;13.436;2023-06-14T05:19:53;8.43;;;5.23;;
18983;SDS011;9626;52.552;13.436;2023-06-14T05:22:21;12.23;;;4.87;;
18983;SDS011;9626;52.552;13.436;2023-06-14T05:24:47;6.57;;;5.00;;
18983;SDS011;9626;52.552;13.436;2023-06-14T05:27:13;8.40;;;5.53;;
18983;SDS011;9626;52.552;13.436;2023-06-14T05:29:39;6.80;;;4.87;;
18983;SDS011;9626;52.552;13.436;2023-06-14T05:32:06;8.10;;;5.50;;
18983;SDS011;9626;52.552;13.436;2023-06-14T05:34:32;6.23;;;5.37;;
18983;SDS011;9626;52.552;13.436;2023-06-14T05:36:58;9.20;;;5.80;;
18983;SDS011;9626;52.552;13.436;2023-06-14T05:39:24;6.93;;;5.97;;
18983;SDS011;9626;52.552;13.436;2023-06-14T05:41:50;7.70;;;5.57;;
18983;SDS011;9626;52.552;13.436;2023-06-14T05:44:16;11.07;;;6.17;;
18983;SDS011;9626;52.552;13.436;2023-06-14T05:46:43;9.20;;;6.00;;
18983;SDS011;9626;52.552;13.436;2023-06-14T05:49:09;9.77;;;6.33;;
18983;SDS011;9626;52.552;13.436;2023-06-14T05:51:35;10.70;;;6.43;;
18983;SDS011;9626;52.552;13.436;2023-06-14T05:54:01;8.67;;;6.13;;
18983;SDS011;9626;52.552;13.436;2023-06-14T05:56:27;9.83;;;5.33;;
18983;SDS011;9626;52.552;13.436;2023-06-14T05:58:55;6.67;;;5.20;;
18983;SDS011;9626;52.552;13.436;2023-06-14T06:01:21;11.30;;;6.00;;
18983;SDS011;9626;52.552;13.436;2023-06-14T06:03:47;9.47;;;5.53;;
18983;SDS011;9626;52.552;13.436;2023-06-14T06:06:13;8.60;;;5.23;;
18983;SDS011;9626;52.552;13.436;2023-06-14T06:08:39;10.20;;;4.53;;
18983;SDS011;9626;52.552;13.436;2023-06-14T06:11:06;7.47;;;4.73;;
18983;SDS011;9626;52.552;13.436;2023-06-14T06:13:32;9.33;;;5.23;;
18983;SDS011;9626;52.552;13.436;2023-06-14T06:15:58;7.27;;;5.50;;
18983;SDS011;9626;52.552;13.436;2023-06-14T06:18:24;9.30;;;4.90;;
18983;SDS011;9626;52.552;13.436;2023-06-14T06:20:50;9.27;;;4.87;;
18983;SDS011;9626;52.552;13.436;2023-06-14T06:23:16;10.63;;;5.30;;
18983;SDS011;9626;52.552;13.436;2023-06-14T06:25:42;6.87;;;4.53;;
18983;SDS011;9626;52.552;13.436;2023-06-14T06:28:08;11.30;;;5.13;;
18983;SDS011;9626;52.552;13.436;2023-06-14T06:30:34;12.37;;;5.07;;
18983;SDS011;9626;52.552;13.436;2023-06-14T06:33:02;12.83;;;5.03;;
18983;SDS011;9626;52.552;13.436;2023-06-14T06:35:28;14.70;;;5.13;;
18983;SDS011;9626;52.552;13.436;2023-06-14T06:37:56;9.57;;;4.47;;
18983;SDS011;9626;52.552;13.436;2023-06-14T06:40:22;7.47;;;4.80;;
18983;SDS011;9626;52.552;13.436;2023-06-14T06:42:48;13.00;;;4.70;;
18983;SDS011;9626;52.552;13.436;2023-06-14T06:45:15;7.40;;;4.67;;
18983;SDS011;9626;52.552;13.436;2023-06-14T06:47:41;6.23;;;4.40;;
18983;SDS011;9626;52.552;13.436;2023-06-14T06:50:08;14.17;;;4.83;;
18983;SDS011;9626;52.552;13.436;2023-06-14T06:52:34;10.07;;;5.33;;
18983;SDS011;9626;52.552;13.436;2023-06-14T06:55:00;19.13;;;5.50;;
18983;SDS011;9626;52.552;13.436;2023-06-14T06:57:27;15.67;;;5.90;;
18983;SDS011;9626;52.552;13.436;2023-06-14T06:59:54;38.30;;;9.37;;
18983;SDS011;9626;52.552;13.436;2023-06-14T07:02:21;50.40;;;9.57;;
18983;SDS011;9626;52.552;13.436;2023-06-14T07:04:47;31.53;;;6.67;;
18983;SDS011;9626;52.552;13.436;2023-06-14T07:07:13;8.80;;;5.17;;
18983;SDS011;9626;52.552;13.436;2023-06-14T07:09:39;9.67;;;5.10;;
18983;SDS011;9626;52.552;13.436;2023-06-14T07:12:07;7.43;;;4.80;;
18983;SDS011;9626;52.552;13.436;2023-06-14T07:14:33;11.53;;;4.43;;
18983;SDS011;9626;52.552;13.436;2023-06-14T07:16:59;6.20;;;4.30;;
18983;SDS011;9626;52.552;13.436;2023-06-14T07:19:25;7.47;;;4.50;;
18983;SDS011;9626;52.552;13.436;2023-06-14T07:21:51;9.17;;;4.53;;
18983;SDS011;9626;52.552;13.436;2023-06-14T07:24:17;8.40;;;3.93;;
18983;SDS011;9626;52.552;13.436;2023-06-14T07:26:44;7.37;;;4.27;;
18983;SDS011;9626;52.552;13.436;2023-06-14T07:29:09;15.57;;;5.00;;
18983;SDS011;9626;52.552;13.436;2023-06-14T07:31:36;7.07;;;4.50;;
18983;SDS011;9626;52.552;13.436;2023-06-14T07:34:02;12.73;;;4.77;;
18983;SDS011;9626;52.552;13.436;2023-06-14T07:36:28;10.37;;;4.77;;
18983;SDS011;9626;52.552;13.436;2023-06-14T07:38:54;9.43;;;4.53;;
18983;SDS011;9626;52.552;13.436;2023-06-14T07:41:20;9.03;;;4.57;;
18983;SDS011;9626;52.552;13.436;2023-06-14T07:43:46;12.23;;;4.30;;
18983;SDS011;9626;52.552;13.436;2023-06-14T07:46:12;6.37;;;4.63;;
18983;SDS011;9626;52.552;13.436;2023-06-14T07:48:38;11.83;;;4.60;;
18983;SDS011;9626;52.552;13.436;2023-06-14T07:51:04;7.80;;;4.40;;
18983;SDS011;9626;52.552;13.436;2023-06-14T07:53:31;8.67;;;4.83;;
18983;SDS011;9626;52.552;13.436;2023-06-14T07:55:57;11.70;;;4.93;;
18983;SDS011;9626;52.552;13.436;2023-06-14T07:58:23;7.80;;;4.40;;
18983;SDS011;9626;52.552;13.436;2023-06-14T08:00:49;9.77;;;4.90;;
18983;SDS011;9626;52.552;13.436;2023-06-14T08:03:15;5.83;;;4.00;;
18983;SDS011;9626;52.552;13.436;2023-06-14T08:05:42;6.00;;;4.00;;
18983;SDS011;9626;52.552;13.436;2023-06-14T08:08:08;11.67;;;4.43;;
18983;SDS011;9626;52.552;13.436;2023-06-14T08:10:34;6.87;;;4.40;;
18983;SDS011;9626;52.552;13.436;2023-06-14T08:13:00;14.73;;;4.40;;
18983;SDS011;9626;52.552;13.436;2023-06-14T08:15:26;6.93;;;4.40;;
18983;SDS011;9626;52.552;13.436;2023-06-14T08:17:52;8.03;;;3.93;;
18983;SDS011;9626;52.552;13.436;2023-06-14T08:20:18;14.47;;;5.27;;
18983;SDS011;9626;52.552;13.436;2023-06-14T08:22:44;9.10;;;3.97;;
18983;SDS011;9626;52.552;13.436;2023-06-14T08:25:12;11.20;;;4.07;;
18983;SDS011;9626;52.552;13.436;2023-06-14T08:27:39;9.90;;;4.03;;
18983;SDS011;9626;52.552;13.436;2023-06-14T08:30:05;10.40;;;4.03;;
18983;SDS011;9626;52.552;13.436;2023-06-14T08:32:33;6.33;;;3.83;;
18983;SDS011;9626;52.552;13.436;2023-06-14T08:34:59;9.37;;;4.17;;
18983;SDS011;9626;52.552;13.436;2023-06-14T08:37:25;9.53;;;4.03;;
18983;SDS011;9626;52.552;13.436;2023-06-14T08:39:52;6.87;;;3.23;;
18983;SDS011;9626;52.552;13.436;2023-06-14T08:42:18;6.93;;;3.83;;
18983;SDS011;9626;52.552;13.436;2023-06-14T08:44:47;5.73;;;3.40;;
18983;SDS011;9626;52.552;13.436;2023-06-14T08:47:13;6.17;;;3.73;;
18983;SDS011;9626;52.552;13.436;2023-06-14T08:49:40;10.03;;;4.13;;
18983;SDS011;9626;52.552;13.436;2023-06-14T08:52:10;5.57;;;3.53;;
18983;SDS011;9626;52.552;13.436;2023-06-14T08:54:38;10.63;;;4.80;;
18983;SDS011;9626;52.552;13.436;2023-06-14T08:57:10;21.03;;;5.03;;
18983;SDS011;9626;52.552;13.436;2023-06-14T08:59:39;8.23;;;3.43;;
18983;SDS011;9626;52.552;13.436;2023-06-14T09:02:15;6.03;;;3.17;;
18983;SDS011;9626;52.552;13.436;2023-06-14T09:04:43;9.70;;;3.17;;
18983;SDS011;9626;52.552;13.436;2023-06-14T09:07:10;5.73;;;3.27;;
18983;SDS011;9626;52.552;13.436;2023-06-14T09:09:38;5.60;;;3.00;;
18983;SDS011;9626;52.552;13.436;2023-06-14T09:12:06;18.67;;;4.82;;
18983;SDS011;9626;52.552;13.436;2023-06-14T09:14:36;8.25;;;3.42;;
18983;SDS011;9626;52.552;13.436;2023-06-14T09:17:05;17.33;;;4.90;;
18983;SDS011;9626;52.552;13.436;2023-06-14T09:19:32;13.43;;;3.72;;
18983;SDS011;9626;52.552;13.436;2023-06-14T09:22:00;10.65;;;3.42;;
18983;SDS011;9626;52.552;13.436;2023-06-14T09:24:26;7.13;;;3.55;;
18983;SDS011;9626;52.552;13.436;2023-06-14T09:26:52;8.65;;;3.58;;
18983;SDS011;9626;52.552;13.436;2023-06-14T09:29:19;4.25;;;3.30;;
18983;SDS011;9626;52.552;13.436;2023-06-14T09:31:46;14.55;;;3.42;;
18983;SDS011;9626;52.552;13.436;2023-06-14T09:34:12;5.05;;;3.20;;
18983;SDS011;9626;52.552;13.436;2023-06-14T09:36:39;12.23;;;3.63;;
18983;SDS011;9626;52.552;13.436;2023-06-14T09:39:05;6.13;;;3.40;;
18983;SDS011;9626;52.552;13.436;2023-06-14T09:41:38;27.65;;;5.65;;
18983;SDS011;9626;52.552;13.436;2023-06-14T09:44:06;4.75;;;3.42;;
18983;SDS011;9626;52.552;13.436;2023-06-14T09:46:33;7.18;;;3.60;;
18983;SDS011;9626;52.552;13.436;2023-06-14T09:49:01;7.40;;;3.28;;
18983;SDS011;9626;52.552;13.436;2023-06-14T09:51:28;5.95;;;3.03;;
18983;SDS011;9626;52.552;13.436;2023-06-14T09:54:01;6.53;;;3.17;;
18983;SDS011;9626;52.552;13.436;2023-06-14T09:56:35;5.93;;;2.83;;
18983;SDS011;9626;52.552;13.436;2023-06-14T09:59:04;7.60;;;3.38;;
18983;SDS011;9626;52.552;13.436;2023-06-14T10:01:33;6.45;;;2.75;;
18983;SDS011;9626;52.552;13.436;2023-06-14T10:04:06;9.98;;;3.72;;
18983;SDS011;9626;52.552;13.436;2023-06-14T10:06:36;5.05;;;3.40;;
18983;SDS011;9626;52.552;13.436;2023-06-14T10:09:04;10.40;;;4.38;;
18983;SDS011;9626;52.552;13.436;2023-06-14T10:11:34;6.70;;;3.30;;
18983;SDS011;9626;52.552;13.436;2023-06-14T10:14:01;4.25;;;2.95;;
18983;SDS011;9626;52.552;13.436;2023-06-14T10:16:31;9.07;;;3.35;;
18983;SDS011;9626;52.552;13.436;2023-06-14T10:19:07;6.75;;;3.05;;
18983;SDS011;9626;52.552;13.436;2023-06-14T10:21:41;5.70;;;3.25;;
18983;SDS011;9626;52.552;13.436;2023-06-14T10:24:19;4.45;;;2.92;;
18983;SDS011;9626;52.552;13.436;2023-06-14T10:26:51;5.43;;;3.20;;
18983;SDS011;9626;52.552;13.436;2023-06-14T10:29:19;5.45;;;2.90;;
18983;SDS011;9626;52.552;13.436;2023-06-14T10:31:49;5.32;;;2.92;;
18983;SDS011;9626;52.552;13.436;2023-06-14T10:34:23;10.52;;;3.75;;
18983;SDS011;9626;52.552;13.436;2023-06-14T10:37:11;5.65;;;3.78;;
18983;SDS011;9626;52.552;13.436;2023-06-14T10:39:43;6.88;;;3.40;;
18983;SDS011;9626;52.552;13.436;2023-06-14T10:42:11;8.15;;;3.40;;
18983;SDS011;9626;52.552;13.436;2023-06-14T10:44:39;5.90;;;3.85;;
18983;SDS011;9626;52.552;13.436;2023-06-14T10:47:33;3.95;;;3.03;;
18983;SDS011;9626;52.552;13.436;2023-06-14T10:52:33;10.02;;;3.80;;
18983;SDS011;9626;52.552;13.436;2023-06-14T10:55:01;7.75;;;3.55;;
18983;SDS011;9626;52.552;13.436;2023-06-14T10:57:30;5.45;;;3.20;;
18983;SDS011;9626;52.552;13.436;2023-06-14T10:59:59;6.88;;;3.78;;
18983;SDS011;9626;52.552;13.436;2023-06-14T11:05:14;4.40;;;3.20;;
18983;SDS011;9626;52.552;13.436;2023-06-14T11:13:05;6.72;;;3.45;;
18983;SDS011;9626;52.552;13.436;2023-06-14T11:15:33;5.40;;;3.30;;
18983;SDS011;9626;52.552;13.436;2023-06-14T11:20:35;8.18;;;3.40;;
18983;SDS011;9626;52.552;13.436;2023-06-14T11:23:02;6.78;;;3.70;;
18983;SDS011;9626;52.552;13.436;2023-06-14T11:25:29;7.40;;;3.45;;
18983;SDS011;9626;52.552;13.436;2023-06-14T11:27:55;5.40;;;3.00;;
18983;SDS011;9626;52.552;13.436;2023-06-14T11:30:22;4.88;;;3.38;;
18983;SDS011;9626;52.552;13.436;2023-06-14T11:32:49;4.90;;;3.10;;
18983;SDS011;9626;52.552;13.436;2023-06-14T11:35:18;6.35;;;3.00;;
18983;SDS011;9626;52.552;13.436;2023-06-14T11:37:45;9.25;;;3.50;;
18983;SDS011;9626;52.552;13.436;2023-06-14T11:40:11;7.07;;;3.20;;
18983;SDS011;9626;52.552;13.436;2023-06-14T11:42:39;3.85;;;2.90;;
18983;SDS011;9626;52.552;13.436;2023-06-14T11:45:10;3.72;;;3.08;;
18983;SDS011;9626;52.552;13.436;2023-06-14T11:47:38;6.82;;;3.47;;
18983;SDS011;9626;52.552;13.436;2023-06-14T11:50:06;7.40;;;3.50;;
18983;SDS011;9626;52.552;13.436;2023-06-14T11:52:34;7.25;;;3.00;;
18983;SDS011;9626;52.552;13.436;2023-06-14T11:55:02;6.55;;;3.03;;
18983;SDS011;9626;52.552;13.436;2023-06-14T11:57:33;7.10;;;3.25;;
18983;SDS011;9626;52.552;13.436;2023-06-14T12:00:04;4.38;;;2.83;;
18983;SDS011;9626;52.552;13.436;2023-06-14T12:02:41;5.57;;;3.13;;
18983;SDS011;9626;52.552;13.436;2023-06-14T12:05:07;3.92;;;2.50;;
18983;SDS011;9626;52.552;13.436;2023-06-14T12:07:38;4.45;;;2.80;;
18983;SDS011;9626;52.552;13.436;2023-06-14T12:10:06;4.00;;;2.63;;
18983;SDS011;9626;52.552;13.436;2023-06-14T12:12:37;7.63;;;2.95;;
18983;SDS011;9626;52.552;13.436;2023-06-14T12:15:05;4.22;;;2.65;;
18983;SDS011;9626;52.552;13.436;2023-06-14T12:17:33;10.95;;;2.70;;
18983;SDS011;9626;52.552;13.436;2023-06-14T12:20:05;4.55;;;2.80;;
18983;SDS011;9626;52.552;13.436;2023-06-14T12:22:37;7.65;;;3.05;;
18983;SDS011;9626;52.552;13.436;2023-06-14T12:25:04;7.15;;;2.70;;
18983;SDS011;9626;52.552;13.436;2023-06-14T12:27:31;4.72;;;2.70;;
18983;SDS011;9626;52.552;13.436;2023-06-14T12:30:00;4.00;;;2.65;;
18983;SDS011;9626;52.552;13.436;2023-06-14T12:32:28;4.97;;;3.00;;
18983;SDS011;9626;52.552;13.436;2023-06-14T12:34:55;9.02;;;3.22;;
18983;SDS011;9626;52.552;13.436;2023-06-14T12:37:21;9.48;;;3.05;;
18983;SDS011;9626;52.552;13.436;2023-06-14T12:39:47;12.98;;;3.97;;
18983;SDS011;9626;52.552;13.436;2023-06-14T12:42:13;11.23;;;3.25;;
18983;SDS011;9626;52.552;13.436;2023-06-14T12:44:40;8.88;;;2.97;;
18983;SDS011;9626;52.552;13.436;2023-06-14T12:47:08;4.00;;;2.65;;
18983;SDS011;9626;52.552;13.436;2023-06-14T12:49:34;4.22;;;2.85;;
18983;SDS011;9626;52.552;13.436;2023-06-14T12:52:00;4.43;;;3.00;;
18983;SDS011;9626;52.552;13.436;2023-06-14T12:54:26;6.18;;;2.60;;
18983;SDS011;9626;52.552;13.436;2023-06-14T12:56:52;7.10;;;2.92;;
18983;SDS011;9626;52.552;13.436;2023-06-14T12:59:18;6.15;;;3.17;;
18983;SDS011;9626;52.552;13.436;2023-06-14T13:01:44;5.93;;;3.05;;
18983;SDS011;9626;52.552;13.436;2023-06-14T13:04:10;5.07;;;3.03;;
18983;SDS011;9626;52.552;13.436;2023-06-14T13:06:37;5.97;;;2.63;;
18983;SDS011;9626;52.552;13.436;2023-06-14T13:09:03;3.75;;;2.70;;
18983;SDS011;9626;52.552;13.436;2023-06-14T13:11:29;9.70;;;3.10;;
18983;SDS011;9626;52.552;13.436;2023-06-14T13:13:55;5.68;;;2.70;;
18983;SDS011;9626;52.552;13.436;2023-06-14T13:16:21;4.57;;;3.08;;
18983;SDS011;9626;52.552;13.436;2023-06-14T13:18:47;4.72;;;2.60;;
18983;SDS011;9626;52.552;13.436;2023-06-14T13:21:13;5.05;;;2.53;;
18983;SDS011;9626;52.552;13.436;2023-06-14T13:23:40;9.48;;;3.25;;
18983;SDS011;9626;52.552;13.436;2023-06-14T13:26:06;9.60;;;3.08;;
18983;SDS011;9626;52.552;13.436;2023-06-14T13:28:32;6.68;;;2.92;;
18983;SDS011;9626;52.552;13.436;2023-06-14T13:31:00;3.88;;;2.65;;
18983;SDS011;9626;52.552;13.436;2023-06-14T13:33:26;6.05;;;3.13;;
18983;SDS011;9626;52.552;13.436;2023-06-14T13:35:53;4.53;;;2.60;;
18983;SDS011;9626;52.552;13.436;2023-06-14T13:38:19;5.93;;;2.55;;
18983;SDS011;9626;52.552;13.436;2023-06-14T13:40:45;3.15;;;2.30;;
18983;SDS011;9626;52.552;13.436;2023-06-14T13:43:11;4.97;;;2.75;;
18983;SDS011;9626;52.552;13.436;2023-06-14T13:45:37;6.07;;;2.70;;
18983;SDS011;9626;52.552;13.436;2023-06-14T13:48:03;10.88;;;3.05;;
18983;SDS011;9626;52.552;13.436;2023-06-14T13:50:29;5.20;;;3.17;;
18983;SDS011;9626;52.552;13.436;2023-06-14T13:52:55;7.15;;;2.92;;
18983;SDS011;9626;52.552;13.436;2023-06-14T13:55:21;3.88;;;2.63;;
18983;SDS011;9626;52.552;13.436;2023-06-14T13:57:48;9.18;;;2.67;;
18983;SDS011;9626;52.552;13.436;2023-06-14T14:00:14;6.82;;;2.75;;
18983;SDS011;9626;52.552;13.436;2023-06-14T14:02:40;3.22;;;2.65;;
18983;SDS011;9626;52.552;13.436;2023-06-14T14:05:06;7.90;;;2.42;;
18983;SDS011;9626;52.552;13.436;2023-06-14T14:07:34;6.70;;;2.50;;
18983;SDS011;9626;52.552;13.436;2023-06-14T14:10:02;7.28;;;2.78;;
18983;SDS011;9626;52.552;13.436;2023-06-14T14:12:28;5.53;;;2.90;;
18983;SDS011;9626;52.552;13.436;2023-06-14T14:14:54;5.35;;;2.63;;
18983;SDS011;9626;52.552;13.436;2023-06-14T14:17:20;9.13;;;2.85;;
18983;SDS011;9626;52.552;13.436;2023-06-14T14:19:46;7.85;;;3.25;;
18983;SDS011;9626;52.552;13.436;2023-06-14T14:22:12;14.82;;;4.25;;
18983;SDS011;9626;52.552;13.436;2023-06-14T14:24:38;4.78;;;2.25;;
18983;SDS011;9626;52.552;13.436;2023-06-14T14:27:05;6.40;;;2.90;;
18983;SDS011;9626;52.552;13.436;2023-06-14T14:29:32;6.50;;;2.42;;
18983;SDS011;9626;52.552;13.436;2023-06-14T14:31:58;6.10;;;2.70;;
18983;SDS011;9626;52.552;13.436;2023-06-14T14:34:24;8.75;;;2.83;;
18983;SDS011;9626;52.552;13.436;2023-06-14T14:36:50;3.88;;;2.50;;
18983;SDS011;9626;52.552;13.436;2023-06-14T14:39:16;7.90;;;3.03;;
18983;SDS011;9626;52.552;13.436;2023-06-14T14:41:43;5.13;;;3.03;;
18983;SDS011;9626;52.552;13.436;2023-06-14T14:44:09;7.22;;;2.85;;
18983;SDS011;9626;52.552;13.436;2023-06-14T14:46:35;8.20;;;3.00;;
18983;SDS011;9626;52.552;13.436;2023-06-14T14:49:01;5.00;;;2.50;;
18983;SDS011;9626;52.552;13.436;2023-06-14T14:51:27;4.93;;;2.53;;
18983;SDS011;9626;52.552;13.436;2023-06-14T14:53:53;7.90;;;3.20;;
18983;SDS011;9626;52.552;13.436;2023-06-14T14:56:19;7.15;;;2.85;;
18983;SDS011;9626;52.552;13.436;2023-06-14T14:58:45;6.97;;;2.70;;
18983;SDS011;9626;52.552;13.436;2023-06-14T15:01:11;5.10;;;2.75;;
18983;SDS011;9626;52.552;13.436;2023-06-14T15:03:37;8.68;;;2.65;;